createdAt,value
2022-10-25T00:01:56.470Z,18.92
2022-10-25T00:04:23.877Z,19.50
2022-10-25T00:06:51.029Z,23.95
2022-10-25T00:09:18.373Z,20.17
2022-10-25T00:11:45.484Z,19.50
2022-10-25T00:14:18.716Z,19.40
2022-10-25T00:16:46.086Z,20.20
2022-10-25T00:19:14.384Z,17.15
2022-10-25T00:21:41.720Z,16.00
2022-10-25T00:24:12.225Z,16.20
2022-10-25T00:26:42.227Z,18.00
2022-10-25T00:29:11.984Z,18.27
2022-10-25T00:31:39.322Z,20.60
2022-10-25T00:34:06.664Z,17.17
2022-10-25T00:36:33.849Z,21.42
2022-10-25T00:39:01.515Z,17.92
2022-10-25T00:41:31.840Z,16.38
2022-10-25T00:44:36.287Z,20.58
2022-10-25T00:47:05.977Z,16.50
2022-10-25T00:49:34.587Z,17.20
2022-10-25T00:52:04.651Z,15.77
2022-10-25T00:54:39.376Z,21.00
2022-10-25T00:57:15.123Z,17.50
2022-10-25T00:59:43.935Z,18.10
2022-10-25T01:02:11.836Z,16.85
2022-10-25T01:04:39.894Z,18.63
2022-10-25T01:07:07.127Z,16.63
2022-10-25T01:09:37.802Z,38.90
2022-10-25T01:12:05.463Z,19.38
2022-10-25T01:14:42.071Z,21.85
2022-10-25T01:17:21.415Z,19.83
2022-10-25T01:20:17.877Z,13.80
2022-10-25T01:23:20.495Z,15.93
2022-10-25T01:25:56.848Z,15.80
2022-10-25T01:29:00.919Z,17.75
2022-10-25T01:31:31.559Z,16.52
2022-10-25T01:34:16.670Z,16.88
2022-10-25T01:37:08.392Z,14.43
2022-10-25T01:39:43.740Z,18.25
2022-10-25T01:42:17.236Z,15.13
2022-10-25T01:44:48.759Z,16.38
2022-10-25T01:50:11.391Z,21.90
2022-10-25T01:52:38.819Z,16.08
2022-10-25T01:55:10.406Z,14.25
2022-10-25T02:00:21.268Z,15.00
2022-10-25T02:03:15.658Z,14.70
2022-10-25T02:05:56.441Z,13.95
2022-10-25T02:08:53.941Z,14.83
2022-10-25T02:11:25.373Z,15.02
2022-10-25T02:14:22.050Z,14.77
2022-10-25T02:17:04.997Z,16.98
2022-10-25T02:19:41.335Z,13.98
2022-10-25T02:22:10.566Z,17.13
2022-10-25T02:24:40.218Z,12.77
2022-10-25T02:27:12.235Z,11.57
2022-10-25T02:29:40.272Z,13.32
2022-10-25T02:32:08.130Z,14.75
2022-10-25T02:34:35.657Z,14.68
2022-10-25T02:37:03.258Z,16.38
2022-10-25T02:39:31.697Z,13.55
2022-10-25T02:42:02.503Z,17.73
2022-10-25T02:44:30.395Z,8.80
2022-10-25T02:46:58.311Z,12.75
2022-10-25T02:49:25.779Z,13.40
2022-10-25T02:51:53.006Z,15.07
2022-10-25T02:54:20.606Z,13.15
2022-10-25T02:56:52.365Z,16.98
2022-10-25T02:59:21.350Z,14.30
2022-10-25T03:01:48.871Z,13.80
2022-10-25T03:04:16.475Z,13.57
2022-10-25T03:06:43.757Z,13.48
2022-10-25T03:09:11.292Z,11.27
2022-10-25T03:11:38.445Z,14.40
2022-10-25T03:14:05.792Z,13.43
2022-10-25T03:16:33.134Z,15.70
2022-10-25T03:19:00.532Z,16.17
2022-10-25T03:21:27.680Z,14.05
2022-10-25T03:23:55.253Z,13.35
2022-10-25T03:26:22.422Z,20.05
2022-10-25T03:28:49.866Z,14.50
2022-10-25T03:31:18.504Z,16.25
2022-10-25T03:33:45.926Z,18.23
2022-10-25T03:36:14.175Z,16.67
2022-10-25T03:38:41.537Z,19.35
2022-10-25T03:41:08.913Z,17.73
2022-10-25T03:43:36.471Z,20.30
2022-10-25T03:46:03.858Z,18.70
2022-10-25T03:48:31.192Z,19.95
2022-10-25T03:50:58.366Z,18.42
2022-10-25T03:53:25.719Z,17.33
2022-10-25T03:55:52.878Z,18.42
2022-10-25T03:58:20.364Z,15.98
2022-10-25T04:00:47.648Z,16.63
2022-10-25T04:03:15.049Z,17.17
2022-10-25T04:05:42.312Z,16.58
2022-10-25T04:08:09.716Z,18.25
2022-10-25T04:10:36.833Z,16.13
2022-10-25T04:13:04.406Z,17.02
2022-10-25T04:15:31.760Z,18.27
2022-10-25T04:17:59.084Z,23.13
2022-10-25T04:20:26.272Z,20.50
2022-10-25T04:22:57.494Z,16.45
2022-10-25T04:25:26.370Z,19.17
2022-10-25T04:27:53.922Z,17.70
2022-10-25T04:30:21.070Z,18.00
2022-10-25T04:32:48.784Z,17.73
2022-10-25T04:35:16.531Z,18.05
2022-10-25T04:37:43.887Z,15.18
2022-10-25T04:40:11.522Z,18.77
2022-10-25T04:42:38.965Z,14.90
2022-10-25T04:45:06.522Z,17.63
2022-10-25T04:47:34.241Z,14.00
2022-10-25T04:50:01.554Z,15.23
2022-10-25T04:52:30.050Z,15.60
2022-10-25T04:54:57.735Z,16.33
2022-10-25T04:57:25.985Z,14.65
2022-10-25T04:59:53.553Z,15.85
2022-10-25T05:02:21.014Z,23.58
2022-10-25T05:04:48.136Z,17.50
2022-10-25T05:07:19.823Z,16.17
2022-10-25T05:09:47.679Z,18.02
2022-10-25T05:12:15.862Z,18.48
2022-10-25T05:14:44.067Z,14.43
2022-10-25T05:17:11.443Z,16.75
2022-10-25T05:19:38.613Z,16.15
2022-10-25T05:22:06.108Z,23.30
2022-10-25T05:24:33.411Z,14.25
2022-10-25T05:27:00.802Z,14.90
2022-10-25T05:29:28.190Z,18.88
2022-10-25T05:31:55.585Z,19.30
2022-10-25T05:34:22.884Z,14.50
2022-10-25T05:36:50.257Z,18.38
2022-10-25T05:39:17.411Z,19.73
2022-10-25T05:41:45.064Z,17.48
2022-10-25T05:44:12.486Z,19.50
2022-10-25T05:46:39.837Z,20.30
2022-10-25T05:49:07.018Z,22.27
2022-10-25T05:51:36.661Z,23.90
2022-10-25T05:54:14.745Z,23.67
2022-10-25T05:56:43.054Z,22.00
2022-10-25T05:59:12.906Z,21.40
2022-10-25T06:01:43.173Z,26.63
2022-10-25T06:04:11.087Z,24.65
2022-10-25T06:06:40.649Z,21.95
2022-10-25T06:09:08.572Z,19.45
2022-10-25T06:11:37.030Z,21.20
2022-10-25T06:14:04.916Z,22.15
2022-10-25T06:16:32.315Z,21.88
2022-10-25T06:18:59.601Z,19.88
2022-10-25T06:21:29.060Z,15.60
2022-10-25T06:23:58.089Z,16.58
2022-10-25T06:26:28.557Z,14.95
2022-10-25T06:28:58.830Z,10.95
2022-10-25T06:31:26.990Z,13.95
2022-10-25T06:33:54.146Z,11.52
2022-10-25T06:36:23.849Z,9.38
2022-10-25T06:38:51.427Z,11.20
2022-10-25T06:41:28.148Z,10.63
2022-10-25T06:43:55.821Z,11.60
2022-10-25T06:46:26.064Z,10.77
2022-10-25T06:48:56.311Z,15.55
2022-10-25T06:51:25.192Z,11.80
2022-10-25T06:54:08.030Z,9.57
2022-10-25T06:56:35.889Z,11.65
2022-10-25T06:59:06.902Z,12.60
2022-10-25T07:01:34.761Z,13.45
2022-10-25T07:04:03.487Z,10.10
2022-10-25T07:06:36.080Z,12.45
2022-10-25T07:09:05.126Z,12.18
2022-10-25T07:11:33.108Z,11.57
2022-10-25T07:14:01.308Z,9.65
2022-10-25T07:16:28.816Z,10.32
2022-10-25T07:19:01.139Z,7.80
2022-10-25T07:21:30.207Z,10.43
2022-10-25T07:23:57.557Z,12.02
2022-10-25T07:26:33.657Z,10.65
2022-10-25T07:29:02.128Z,10.88
2022-10-25T07:31:32.544Z,7.25
2022-10-25T07:34:02.094Z,6.45
2022-10-25T07:36:34.880Z,12.88
2022-10-25T07:39:02.050Z,8.32
2022-10-25T07:41:29.408Z,8.43
2022-10-25T07:43:56.796Z,8.88
2022-10-25T07:46:24.545Z,7.00
2022-10-25T07:48:54.479Z,8.32
2022-10-25T07:51:21.886Z,5.90
2022-10-25T07:53:50.029Z,8.20
2022-10-25T07:56:24.719Z,8.75
2022-10-25T07:58:52.860Z,8.35
2022-10-25T08:01:23.464Z,6.43
2022-10-25T08:03:52.163Z,8.68
2022-10-25T08:06:21.888Z,7.68
2022-10-25T08:08:49.394Z,6.80
2022-10-25T08:11:17.551Z,6.50
2022-10-25T08:13:44.691Z,7.05
2022-10-25T08:16:12.106Z,5.10
2022-10-25T08:18:43.976Z,6.05
2022-10-25T08:21:11.698Z,7.20
2022-10-25T08:23:39.086Z,6.47
2022-10-25T08:26:06.667Z,6.50
2022-10-25T08:28:34.312Z,6.80
2022-10-25T08:31:04.660Z,7.57
2022-10-25T08:33:32.581Z,5.93
2022-10-25T08:36:01.517Z,6.03
2022-10-25T08:38:29.144Z,8.82
2022-10-25T08:41:20.186Z,4.28
2022-10-25T08:44:16.891Z,3.55
2022-10-25T08:47:00.126Z,4.95
2022-10-25T08:49:55.504Z,6.60
2022-10-25T08:52:37.416Z,6.63
2022-10-25T08:55:11.960Z,6.95
2022-10-25T08:57:47.108Z,7.82
2022-10-25T09:00:22.572Z,5.82
2022-10-25T09:02:54.097Z,8.38
2022-10-25T09:05:41.967Z,6.03
2022-10-25T09:10:54.095Z,4.05
2022-10-25T09:13:30.755Z,5.78
2022-10-25T09:16:15.637Z,8.93
2022-10-25T09:18:58.389Z,6.90
2022-10-25T09:21:47.518Z,6.03
2022-10-25T09:24:37.041Z,4.22
2022-10-25T09:27:07.340Z,6.97
2022-10-25T09:29:41.858Z,4.70
2022-10-25T09:32:36.826Z,5.35
2022-10-25T09:35:17.402Z,4.95
2022-10-25T09:38:11.774Z,4.45
2022-10-25T09:40:47.910Z,4.78
2022-10-25T09:43:23.226Z,4.43
2022-10-25T09:46:05.199Z,6.03
2022-10-25T09:48:55.660Z,8.60
2022-10-25T09:51:49.295Z,5.63
2022-10-25T09:54:29.039Z,4.07
2022-10-25T09:56:56.699Z,7.30
2022-10-25T09:59:24.194Z,6.70
2022-10-25T10:01:52.010Z,5.47
2022-10-25T10:04:27.494Z,4.30
2022-10-25T10:07:01.870Z,7.25
2022-10-25T10:09:31.193Z,5.20
2022-10-25T10:12:04.227Z,5.63
2022-10-25T10:14:39.655Z,4.78
2022-10-25T10:17:14.096Z,5.80
2022-10-25T10:19:41.654Z,4.88
2022-10-25T10:22:17.260Z,4.70
2022-10-25T10:24:48.480Z,7.20
2022-10-25T10:27:20.915Z,5.85
2022-10-25T10:29:56.399Z,7.20
2022-10-25T10:32:34.684Z,6.82
2022-10-25T10:35:06.709Z,4.60
2022-10-25T10:37:34.792Z,7.60
2022-10-25T10:40:22.583Z,4.55
2022-10-25T10:42:55.747Z,10.07
2022-10-25T10:45:26.763Z,3.08
2022-10-25T10:47:57.279Z,6.45
2022-10-25T10:50:32.023Z,7.10
2022-10-25T10:53:00.949Z,5.65
2022-10-25T10:55:32.586Z,6.65
2022-10-25T10:58:03.827Z,7.45
2022-10-25T11:00:32.785Z,4.18
2022-10-25T11:03:00.418Z,5.70
2022-10-25T11:05:29.436Z,6.28
2022-10-25T11:08:02.806Z,6.50
2022-10-25T11:10:34.954Z,4.90
2022-10-25T11:13:05.127Z,6.63
2022-10-25T11:15:55.357Z,8.57
2022-10-25T11:18:37.850Z,7.95
2022-10-25T11:21:24.639Z,6.05
2022-10-25T11:24:12.697Z,5.50
2022-10-25T11:26:56.249Z,5.93
2022-10-25T11:29:58.882Z,6.07
2022-10-25T11:32:28.611Z,4.40
2022-10-25T11:35:26.419Z,7.22
2022-10-25T11:38:10.258Z,6.05
2022-10-25T11:40:41.450Z,5.85
2022-10-25T11:43:26.345Z,7.25
2022-10-25T11:46:02.569Z,6.68
2022-10-25T11:48:52.623Z,6.03
2022-10-25T11:51:22.806Z,6.22
2022-10-25T11:54:11.660Z,5.07
2022-10-25T11:56:54.173Z,5.47
2022-10-25T11:59:26.587Z,5.57
2022-10-25T12:02:27.956Z,3.00
2022-10-25T12:05:08.017Z,3.60
2022-10-25T12:07:44.794Z,3.70
2022-10-25T12:10:47.379Z,3.83
2022-10-25T12:13:32.939Z,6.35
2022-10-25T12:16:01.829Z,3.97
2022-10-25T12:18:38.007Z,8.13
2022-10-25T12:21:07.892Z,3.80
2022-10-25T12:23:45.414Z,4.55
2022-10-25T12:26:35.831Z,7.53
2022-10-25T12:29:06.137Z,6.93
2022-10-25T12:31:40.758Z,6.93
2022-10-25T12:34:16.089Z,6.32
2022-10-25T12:37:27.120Z,5.28
2022-10-25T12:39:54.826Z,6.43
2022-10-25T12:42:27.982Z,6.88
2022-10-25T12:45:04.348Z,6.03
2022-10-25T12:47:48.820Z,5.70
2022-10-25T12:50:42.422Z,7.10
2022-10-25T12:53:30.924Z,4.60
2022-10-25T12:56:19.713Z,8.05
2022-10-25T12:58:56.438Z,6.28
2022-10-25T13:01:33.065Z,4.70
2022-10-25T13:04:28.172Z,5.50
2022-10-25T13:06:57.481Z,6.43
2022-10-25T13:09:31.464Z,6.45
2022-10-25T13:12:07.804Z,3.50
2022-10-25T13:14:43.537Z,5.50
2022-10-25T13:17:17.106Z,4.88
2022-10-25T13:22:51.115Z,2.70
2022-10-25T13:25:50.113Z,6.20
2022-10-25T13:28:19.913Z,9.57
2022-10-25T13:30:47.174Z,6.25
2022-10-25T13:33:24.564Z,7.55
2022-10-25T13:35:51.661Z,5.00
2022-10-25T13:38:39.117Z,9.38
2022-10-25T13:41:18.687Z,4.70
2022-10-25T13:44:04.360Z,7.43
2022-10-25T13:46:34.152Z,7.32
2022-10-25T13:49:18.882Z,5.97
2022-10-25T13:51:47.172Z,5.57
2022-10-25T13:54:14.633Z,6.78
2022-10-25T13:56:53.667Z,6.45
2022-10-25T14:00:02.827Z,8.30
2022-10-25T14:03:04.479Z,7.78
2022-10-25T14:05:56.777Z,7.28
2022-10-25T14:08:36.411Z,7.22
2022-10-25T14:11:14.501Z,3.00
2022-10-25T14:14:26.119Z,7.05
2022-10-25T14:17:08.559Z,4.53
2022-10-25T14:20:03.087Z,8.93
2022-10-25T14:22:37.427Z,6.88
2022-10-25T14:25:23.202Z,6.60
2022-10-25T14:28:14.270Z,6.35
2022-10-25T14:30:43.647Z,10.60
2022-10-25T14:33:25.164Z,9.40
2022-10-25T14:36:05.357Z,8.07
2022-10-25T14:38:37.798Z,9.57
2022-10-25T14:41:11.880Z,6.97
2022-10-25T14:43:39.682Z,8.80
2022-10-25T14:46:09.771Z,7.32
2022-10-25T14:48:37.379Z,11.55
2022-10-25T14:51:13.330Z,11.75
2022-10-25T14:54:15.545Z,8.25
2022-10-25T14:56:50.923Z,7.68
2022-10-25T14:59:21.341Z,9.95
2022-10-25T15:01:54.645Z,9.73
2022-10-25T15:04:35.715Z,9.10
2022-10-25T15:07:03.570Z,11.82
2022-10-25T15:09:46.937Z,13.40
2022-10-25T15:12:14.063Z,10.57
2022-10-25T15:14:41.831Z,10.27
2022-10-25T15:17:22.527Z,9.75
2022-10-25T15:20:22.663Z,8.33
2022-10-25T15:22:52.206Z,9.10
2022-10-25T15:25:22.947Z,15.93
2022-10-25T15:27:52.571Z,8.35
2022-10-25T15:30:50.094Z,9.93
2022-10-25T15:33:25.923Z,7.00
2022-10-25T15:35:56.701Z,8.65
2022-10-25T15:38:42.337Z,7.63
2022-10-25T15:41:15.576Z,7.68
2022-10-25T15:43:42.850Z,7.40
2022-10-25T15:46:25.317Z,10.98
2022-10-25T15:48:53.215Z,10.57
2022-10-25T15:51:20.844Z,8.48
2022-10-25T15:53:48.065Z,14.27
2022-10-25T15:56:18.529Z,9.75
2022-10-25T15:58:45.779Z,10.32
2022-10-25T16:01:13.862Z,10.40
2022-10-25T16:03:41.331Z,7.72
2022-10-25T16:06:15.709Z,9.15
2022-10-25T16:08:43.720Z,6.78
2022-10-25T16:11:18.094Z,10.68
2022-10-25T16:13:48.809Z,9.20
2022-10-25T16:16:40.260Z,12.90
2022-10-25T16:19:19.642Z,5.93
2022-10-25T16:21:47.909Z,10.60
2022-10-25T16:24:16.459Z,10.93
2022-10-25T16:26:49.697Z,12.10
2022-10-25T16:29:24.158Z,11.95
2022-10-25T16:31:54.891Z,9.70
2022-10-25T16:34:22.905Z,12.23
2022-10-25T16:36:52.558Z,19.05
2022-10-25T16:39:22.827Z,20.92
2022-10-25T16:41:50.354Z,23.52
2022-10-25T16:44:19.545Z,17.42
2022-10-25T16:46:47.105Z,13.73
2022-10-25T16:49:19.498Z,13.70
2022-10-25T16:51:46.934Z,17.83
2022-10-25T16:54:15.613Z,13.63
2022-10-25T16:56:43.215Z,13.93
2022-10-25T16:59:10.419Z,12.48
2022-10-25T17:01:41.198Z,16.90
2022-10-25T17:04:17.123Z,16.85
2022-10-25T17:06:47.289Z,20.10
2022-10-25T17:09:14.523Z,27.30
2022-10-25T17:11:45.645Z,26.73
2022-10-25T17:14:14.378Z,24.25
2022-10-25T17:16:44.162Z,25.40
2022-10-25T17:19:15.585Z,20.70
2022-10-25T17:21:43.417Z,23.45
2022-10-25T17:24:10.623Z,18.63
2022-10-25T17:26:38.734Z,15.52
2022-10-25T17:29:08.690Z,15.32
2022-10-25T17:31:39.057Z,17.77
2022-10-25T17:34:08.788Z,19.48
2022-10-25T17:36:38.234Z,16.90
2022-10-25T17:39:10.035Z,20.23
2022-10-25T17:41:37.813Z,17.23
2022-10-25T17:44:05.025Z,19.00
2022-10-25T17:46:32.802Z,27.38
2022-10-25T17:49:05.833Z,20.17
2022-10-25T17:51:34.735Z,19.05
2022-10-25T17:54:01.904Z,15.70
2022-10-25T17:56:29.352Z,20.58
2022-10-25T17:58:58.733Z,22.98
2022-10-25T18:01:28.109Z,19.88
2022-10-25T18:03:55.695Z,19.83
2022-10-25T18:06:25.970Z,18.08
2022-10-25T18:08:59.076Z,18.52
2022-10-25T18:11:28.429Z,20.05
2022-10-25T18:13:58.931Z,20.75
2022-10-25T18:16:27.708Z,16.52
2022-10-25T18:19:02.847Z,17.60
2022-10-25T18:21:32.040Z,24.00
2022-10-25T18:24:03.217Z,19.48
2022-10-25T18:26:31.254Z,14.10
2022-10-25T18:28:59.061Z,14.82
2022-10-25T18:31:27.287Z,19.17
2022-10-25T18:33:55.484Z,18.60
2022-10-25T18:36:23.159Z,17.50
2022-10-25T18:38:51.161Z,14.18
2022-10-25T18:41:24.737Z,16.90
2022-10-25T18:43:52.475Z,15.43
2022-10-25T18:46:19.878Z,17.08
2022-10-25T18:48:51.616Z,17.92
2022-10-25T18:51:21.156Z,17.85
2022-10-25T18:53:52.554Z,18.88
2022-10-25T18:56:22.055Z,13.35
2022-10-25T18:58:50.004Z,16.52
2022-10-25T19:01:24.522Z,15.15
2022-10-25T19:03:52.203Z,19.00
2022-10-25T19:06:19.633Z,15.50
2022-10-25T19:08:49.248Z,16.80
2022-10-25T19:11:16.785Z,16.52
2022-10-25T19:13:47.565Z,18.73
2022-10-25T19:16:18.130Z,15.98
2022-10-25T19:18:45.298Z,16.33
2022-10-25T19:21:16.794Z,17.45
2022-10-25T19:23:46.278Z,18.35
2022-10-25T19:26:19.716Z,15.88
2022-10-25T19:28:47.576Z,18.08
2022-10-25T19:31:17.190Z,13.95
2022-10-25T19:33:50.138Z,16.80
2022-10-25T19:36:18.453Z,15.70
2022-10-25T19:38:48.829Z,16.95
2022-10-25T19:41:18.897Z,20.05
2022-10-25T19:43:47.141Z,16.98
2022-10-25T19:46:15.310Z,20.95
2022-10-25T19:48:42.479Z,19.75
2022-10-25T19:51:13.809Z,18.55
2022-10-25T19:53:41.088Z,22.02
2022-10-25T19:56:18.986Z,25.70
2022-10-25T19:58:47.555Z,24.33
2022-10-25T20:01:17.880Z,16.95
2022-10-25T20:03:48.607Z,22.70
2022-10-25T20:06:23.341Z,19.97
2022-10-25T20:08:53.029Z,17.73
2022-10-25T20:11:21.501Z,23.40
2022-10-25T20:13:48.713Z,24.90
2022-10-25T20:16:16.074Z,19.73
2022-10-25T20:18:43.474Z,21.27
2022-10-25T20:21:16.990Z,23.70
2022-10-25T20:23:49.387Z,17.65
2022-10-25T20:26:23.814Z,26.23
2022-10-25T20:28:55.442Z,17.70
2022-10-25T20:33:51.910Z,18.88
2022-10-25T20:36:19.650Z,13.68
2022-10-25T20:38:47.477Z,17.42
2022-10-25T20:41:20.633Z,20.27
2022-10-25T20:43:53.497Z,18.95
2022-10-25T20:46:22.940Z,15.50
2022-10-25T20:48:50.675Z,18.80
2022-10-25T20:51:18.401Z,18.92
2022-10-25T20:53:46.499Z,18.75
2022-10-25T20:56:14.816Z,15.43
2022-10-25T20:58:42.088Z,17.70
2022-10-25T21:01:10.198Z,17.90
2022-10-25T21:03:38.521Z,19.73
2022-10-25T21:06:08.058Z,19.63
2022-10-25T21:08:37.542Z,18.77
2022-10-25T21:11:07.433Z,20.48
2022-10-25T21:13:36.252Z,18.88
2022-10-25T21:16:08.873Z,15.32
2022-10-25T21:18:37.338Z,20.33
2022-10-25T21:21:07.630Z,22.05
2022-10-25T21:23:35.462Z,12.43
2022-10-25T21:26:07.795Z,13.52
2022-10-25T21:28:37.693Z,16.42
2022-10-25T21:31:08.088Z,17.33
2022-10-25T21:33:35.634Z,15.45
2022-10-25T21:36:08.835Z,12.40
2022-10-25T21:38:36.707Z,14.57
2022-10-25T21:41:20.609Z,18.85
2022-10-25T21:43:49.941Z,24.80
2022-10-25T21:46:19.720Z,15.15
2022-10-25T21:48:48.093Z,16.65
2022-10-25T21:51:15.543Z,14.30
2022-10-25T21:53:42.962Z,13.90
2022-10-25T21:56:12.658Z,16.73
2022-10-25T21:58:41.626Z,13.65
2022-10-25T22:01:12.400Z,16.88
2022-10-25T22:03:40.516Z,15.43
2022-10-25T22:06:13.782Z,17.75
2022-10-25T22:08:41.747Z,16.10
2022-10-25T22:11:15.449Z,14.23
2022-10-25T22:13:43.076Z,14.15
2022-10-25T22:16:19.024Z,14.75
2022-10-25T22:18:54.902Z,12.38
2022-10-25T22:21:22.311Z,16.35
2022-10-25T22:23:49.931Z,15.90
2022-10-25T22:26:19.496Z,13.63
2022-10-25T22:28:50.893Z,14.48
2022-10-25T22:31:20.085Z,15.52
2022-10-25T22:33:51.821Z,13.57
2022-10-25T22:36:20.265Z,12.85
2022-10-25T22:38:47.614Z,12.68
2022-10-25T22:41:26.536Z,14.80
2022-10-25T22:43:54.085Z,10.00
2022-10-25T22:46:30.915Z,17.35
2022-10-25T22:48:59.828Z,13.27
2022-10-25T22:51:28.239Z,15.63
2022-10-25T22:53:55.483Z,12.88
2022-10-25T22:56:27.625Z,14.43
2022-10-25T22:58:57.560Z,17.00
2022-10-25T23:01:27.550Z,13.65
2022-10-25T23:03:56.715Z,16.08
2022-10-25T23:06:27.089Z,14.68
2022-10-25T23:08:55.655Z,14.45
2022-10-25T23:11:42.391Z,14.57
2022-10-25T23:14:14.701Z,14.20
2022-10-25T23:16:46.224Z,13.23
2022-10-25T23:19:13.457Z,13.15
2022-10-25T23:21:40.888Z,13.75
2022-10-25T23:24:09.431Z,8.93
2022-10-25T23:26:36.957Z,20.60
2022-10-25T23:29:05.129Z,13.05
2022-10-25T23:31:33.024Z,12.05
2022-10-25T23:34:00.603Z,12.52
2022-10-25T23:36:30.502Z,18.55
2022-10-25T23:38:58.310Z,15.90
2022-10-25T23:41:25.866Z,16.95
2022-10-25T23:43:53.179Z,19.20
2022-10-25T23:46:20.552Z,13.40
2022-10-25T23:48:48.070Z,13.05
2022-10-25T23:51:17.662Z,10.90
2022-10-25T23:53:45.680Z,14.02
2022-10-25T23:56:14.032Z,13.40
2022-10-25T23:58:41.862Z,12.27
